Latest Weather Observations for Geelong Racecourse

IDV60901

Issued at 7:21 pm EST Wednesday 29 July 2015 (issued every 10 minutes, with the page automatically refreshed every 10 minutes)

About weather observations | Map of Melbourne area stations | Latest observations for Melbourne area | Other Formats
Station Details ID: 087184 Name: GEELONG RACECOURSE Lat: -38.17 Lon: 144.38 Height: 12.9 m
Data from the previous 72 hours. | See also: Recent months at Geelong Racecourse
Date/Time
EST
Tmp

°C
App
Tmp
°C
Dew
Point
°C
Rel
Hum
%
Delta-T

°C
Wind Press
QNH
hPa
Press
MSL
hPa
Rain
since
9 am
mm
Dir
 
Spd
km/h
Gust
km/h
Spd
kts
Gust
kts
29/07:00pm 10.9 7.6 4.4 64 2.9 N 11 17 6 9 1027.2 1027.3 0.0
29/06:30pm 11.2 7.7 3.7 60 3.3 NNW 11 15 6 8 1027.3 1027.4 0.0
29/06:00pm 11.3 7.8 3.6 59 3.4 N 11 15 6 8 1027.2 1027.3 0.0
29/05:30pm 11.5 8.0 3.5 58 3.5 NNW 11 20 6 11 1027.4 1027.5 0.0
29/05:00pm 11.6 8.5 3.6 58 3.5 NW 9 13 5 7 1027.5 1027.6 0.0
29/04:30pm 11.8 7.9 3.3 56 3.7 NW 13 20 7 11 1027.7 1027.8 0.0
29/04:00pm 12.1 7.3 2.8 53 4.0 NNW 17 24 9 13 1027.8 1027.9 0.0
29/03:30pm 12.3 8.3 3.0 53 4.1 NNW 13 20 7 11 1027.7 1027.8 0.0
29/03:00pm 12.4 7.2 2.6 51 4.2 NNW 19 28 10 15 1028.1 1028.2 0.0
29/02:30pm 12.5 7.2 3.2 53 4.1 NW 20 30 11 16 1028.7 1028.8 0.0
29/02:00pm 12.6 7.9 3.0 52 4.2 NW 17 28 9 15 1029.0 1029.1 0.0
29/01:30pm 12.6 7.4 2.7 51 4.3 NW 19 28 10 15 1029.3 1029.4 0.0
29/01:00pm 12.6 7.5 3.3 53 4.1 NW 19 28 10 15 1030.1 1030.2 0.0
29/12:30pm 13.0 7.3 3.1 51 4.4 NNW 22 33 12 18 1030.3 1030.4 0.0
29/12:00pm 13.3 7.7 3.7 52 4.3 NNW 22 32 12 17 1030.9 1031.0 0.0
29/11:30am 12.9 8.4 4.1 55 4.0 NNW 17 28 9 15 1031.6 1031.7 0.0
29/11:00am 12.7 8.7 4.7 58 3.6 NNW 15 22 8 12 1031.9 1032.0 0.0
29/10:30am 12.3 9.1 5.2 62 3.3 NNW 11 17 6 9 1032.2 1032.3 0.0
29/10:00am 11.3 8.9 7.0 75 2.0 NNW 9 15 5 8 1032.5 1032.6 0.0
29/09:30am 8.1 7.0 7.0 93 0.5 W 2 6 1 3 1032.5 1032.6 0.0
29/09:00am 7.2 6.0 6.3 94 0.4 W 2 4 1 2 1032.7 1032.8 0.0
29/08:30am 7.0 5.3 6.1 94 0.4 NNW 4 6 2 3 1032.7 1032.8 0.0
29/08:00am 5.4 3.4 4.5 94 0.4 NNW 4 6 2 3 1032.8 1032.9 0.0
29/07:30am 4.8 3.1 4.1 95 0.3 NNW 2 4 1 2 1032.6 1032.7 0.0
29/07:00am 4.5 2.4 3.8 95 0.3 N 4 4 2 2 1032.4 1032.5 0.0
29/06:30am 4.4 2.6 3.5 94 0.4 N 2 4 1 2 1032.4 1032.5 0.0
29/06:00am 5.8 3.9 5.1 95 0.3 NNW 4 6 2 3 1032.4 1032.5 0.0
29/05:30am 5.3 3.0 4.6 95 0.3 NNW 6 7 3 4 1032.2 1032.3 0.0
29/05:00am 5.7 4.2 4.8 94 0.4 NNW 2 2 1 1 1032.1 1032.2 0.0
29/04:30am 6.3 4.5 5.4 94 0.4 NNW 4 6 2 3 1032.2 1032.3 0.0
29/04:00am 6.8 5.5 5.9 94 0.4 N 2 4 1 2 1032.4 1032.5 0.0
29/03:30am 6.8 4.7 5.9 94 0.4 NW 6 6 3 3 1032.3 1032.4 0.0
29/03:00am 7.3 5.7 6.4 94 0.4 WNW 4 4 2 2 1032.5 1032.6 0.0
29/02:30am 7.5 5.6 6.6 94 0.4 WNW 6 7 3 4 1032.8 1032.9 0.0
29/02:00am 7.8 5.9 6.9 94 0.4 NW 6 9 3 5 1033.1 1033.2 0.0
29/01:30am 8.3 6.4 7.4 94 0.4 NW 7 11 4 6 1033.0 1033.1 0.0
29/01:00am 8.4 6.7 7.5 94 0.4 NW 6 9 3 5 1032.8 1032.9 0.0
29/12:30am 9.0 7.2 7.9 93 0.5 NW 7 11 4 6 1032.9 1033.0 0.0
29/12:00am 9.3 7.2 8.2 93 0.5 NW 9 11 5 6 1033.4 1033.5 0.0
 
Date/Time
EST
Tmp

°C
App
Tmp
°C
Dew
Point
°C
Rel
Hum
%
Delta-T

°C
Wind Press
QNH
hPa
Press
MSL
hPa
Rain
since
9 am
mm
Dir
 
Spd
km/h
Gust
km/h
Spd
kts
Gust
kts
28/11:30pm 9.2 7.1 8.3 94 0.4 WNW 9 13 5 7 1033.7 1033.8 0.0
28/11:00pm 9.2 7.5 8.3 94 0.4 NW 7 11 4 6 1033.7 1033.8 0.0
28/10:30pm 9.2 7.5 8.3 94 0.4 NW 7 11 4 6 1033.8 1033.9 0.0
28/10:00pm 9.1 7.0 8.2 94 0.4 WNW 9 13 5 7 1034.0 1034.1 0.0
28/09:30pm 9.5 7.8 8.4 93 0.5 NW 7 11 4 6 1034.1 1034.2 0.0
28/09:00pm 9.6 7.6 8.5 93 0.5 NW 9 11 5 6 1034.2 1034.3 0.0
28/08:30pm 9.6 7.9 8.5 93 0.5 WNW 7 11 4 6 1034.2 1034.3 0.0
28/08:00pm 9.9 7.9 8.7 92 0.6 W 9 13 5 7 1034.2 1034.3 0.0
28/07:30pm 11.0 8.5 8.4 84 1.3 W 11 17 6 9 1034.0 1034.1 0.0
28/07:00pm 11.3 9.2 8.2 81 1.5 WNW 9 13 5 7 1033.8 1033.9 0.0
28/06:30pm 11.6 9.1 8.1 79 1.7 WNW 11 15 6 8 1033.6 1033.7 0.0
28/06:00pm 11.7 9.2 8.0 78 1.8 NW 11 17 6 9 1033.3 1033.4 0.0
28/05:30pm 11.8 9.2 7.7 76 2.0 NW 11 17 6 9 1033.2 1033.3 0.0
28/05:00pm 11.8 9.8 7.3 74 2.1 WNW 7 11 4 6 1033.2 1033.3 0.0
28/04:30pm 12.1 9.3 7.0 71 2.4 W 11 17 6 9 1033.1 1033.2 0.0
28/04:00pm 12.9 8.6 6.9 67 2.9 W 19 26 10 14 1033.1 1033.2 0.0
28/03:30pm 13.4 9.9 7.4 67 2.9 W 15 22 8 12 1033.2 1033.3 0.0
28/03:00pm 12.8 9.8 7.5 70 2.6 W 13 22 7 12 1033.1 1033.2 0.0
28/02:30pm 12.8 9.3 8.7 76 2.0 WSW 17 24 9 13 1033.2 1033.3 0.0
28/02:00pm 12.8 9.2 8.3 74 2.2 W 17 26 9 14 1033.3 1033.4 0.0
28/01:30pm 12.4 9.4 9.2 81 1.6 W 15 30 8 16 1033.7 1033.8 0.0
28/01:00pm 12.2 8.9 9.6 84 1.3 WNW 17 24 9 13 1034.0 1034.1 0.0
28/12:30pm 11.2 8.0 9.8 91 0.7 WNW 17 22 9 12 1034.3 1034.4 0.0
28/12:00pm 10.5 7.5 9.3 92 0.6 W 15 26 8 14 1034.6 1034.7 0.0
28/11:30am 9.7 6.5 8.6 93 0.5 WNW 15 22 8 12 1034.8 1034.9 0.0
28/11:00am 9.0 5.7 7.9 93 0.5 W 15 20 8 11 1035.2 1035.3 0.0
28/10:30am 8.4 4.2 7.3 93 0.5 WNW 19 32 10 17 1035.2 1035.3 0.0
28/10:00am 7.5 4.2 6.6 94 0.4 WNW 13 20 7 11 1035.3 1035.4 0.0
28/09:30am 7.0 2.9 6.1 94 0.4 WNW 17 24 9 13 1035.3 1035.4 0.0
28/09:00am 6.7 1.6 5.8 94 0.4 WNW 22 32 12 17 1035.0 1035.1 0.0
28/08:30am 6.7 2.1 5.7 93 0.4 WNW 19 30 10 16 1034.6 1034.7 0.0
28/08:00am 7.3 4.0 6.2 93 0.5 WNW 13 24 7 13 1034.4 1034.5 0.0
28/07:30am 7.1 4.1 6.0 93 0.5 WNW 11 20 6 11 1034.1 1034.2 0.0
28/07:00am 6.7 3.3 5.7 93 0.4 WNW 13 20 7 11 1033.7 1033.8 0.0
28/06:30am 7.2 3.8 6.1 93 0.5 WNW 13 24 7 13 1033.4 1033.5 0.0
28/06:00am 7.1 3.3 6.0 93 0.5 W 15 24 8 13 1033.0 1033.1 0.0
28/05:30am 7.6 3.6 6.5 93 0.5 W 17 22 9 12 1032.6 1032.7 0.0
28/05:00am 7.6 3.9 6.5 93 0.5 W 15 24 8 13 1032.2 1032.3 0.0
28/04:30am 7.6 4.7 6.5 93 0.5 W 11 19 6 10 1032.0 1032.1 0.0
28/04:00am 7.1 5.0 6.0 93 0.5 WNW 6 11 3 6 1032.0 1032.1 0.0
28/03:30am 7.0 4.9 5.9 93 0.5 W 6 9 3 5 1031.9 1032.0 0.0
28/03:00am 7.0 4.4 5.9 93 0.5 WNW 9 13 5 7 1032.0 1032.1 0.0
28/02:30am 6.9 4.2 5.8 93 0.5 WNW 9 13 5 7 1031.9 1032.0 0.0
28/02:00am 6.7 4.0 5.7 93 0.4 WNW 9 13 5 7 1031.7 1031.8 0.0
28/01:30am 6.6 4.3 5.6 93 0.4 WNW 7 13 4 7 1031.3 1031.4 0.0
28/01:00am 6.7 4.4 5.7 93 0.4 WNW 7 13 4 7 1031.2 1031.3 0.0
28/12:30am 6.9 4.2 5.8 93 0.5 WNW 9 17 5 9 1031.3 1031.4 0.0
28/12:00am 7.3 4.0 6.2 93 0.5 WNW 13 24 7 13 1031.2 1031.3 0.0
 
Date/Time
EST
Tmp

°C
App
Tmp
°C
Dew
Point
°C
Rel
Hum
%
Delta-T

°C
Wind Press
QNH
hPa
Press
MSL
hPa
Rain
since
9 am
mm
Dir
 
Spd
km/h
Gust
km/h
Spd
kts
Gust
kts
27/11:30pm 7.0 4.4 5.9 93 0.5 WNW 9 15 5 8 1031.1 1031.2 0.0
27/11:00pm 7.1 4.1 6.0 93 0.5 NW 11 19 6 10 1031.1 1031.2 0.0
27/10:30pm 7.3 4.0 6.2 93 0.5 NW 13 19 7 10 1030.9 1031.0 0.0
27/10:00pm 7.5 4.6 6.4 93 0.5 NW 11 17 6 9 1030.9 1031.0 0.0
27/09:30pm 7.8 4.9 6.7 93 0.5 WNW 11 19 6 10 1030.9 1031.0 0.0
27/09:00pm 7.9 4.7 6.8 93 0.5 WNW 13 22 7 12 1030.9 1031.0 0.0
27/08:30pm 7.9 4.7 6.8 93 0.5 WNW 13 19 7 10 1030.6 1030.7 0.0
27/08:00pm 8.3 5.9 7.1 92 0.6 WNW 9 15 5 8 1030.7 1030.8 0.0
27/07:30pm 8.3 6.3 7.1 92 0.6 WNW 7 9 4 5 1030.7 1030.8 0.0
27/07:00pm 8.1 6.2 6.9 92 0.6 NW 6 7 3 4 1030.5 1030.6 0.0
27/06:30pm 8.2 6.3 6.7 90 0.7 W 6 9 3 5 1030.2 1030.3 0.0
27/06:00pm 8.4 6.4 7.0 91 0.6 W 7 13 4 7 1029.8 1029.9 0.0
27/05:30pm 9.2 6.8 7.0 86 1.0 W 9 15 5 8 1029.6 1029.7 0.0
27/05:00pm 9.7 6.8 8.0 89 0.8 W 13 26 7 14 1029.3 1029.4 0.0
27/04:30pm 11.1 7.6 7.0 76 2.0 WNW 15 22 8 12 1029.0 1029.1 0.0
27/04:00pm 12.2 7.9 7.1 71 2.4 W 19 28 10 15 1028.8 1028.9 0.0
27/03:30pm 12.1 7.2 6.8 70 2.5 W 22 33 12 18 1028.5 1028.6 0.0
27/03:00pm 12.4 7.7 6.0 65 3.0 W 20 33 11 18 1028.1 1028.2 0.0
27/02:30pm 12.6 7.6 6.4 66 2.9 W 22 33 12 18 1027.7 1027.8 0.0
27/02:00pm 12.5 7.3 7.4 71 2.5 W 24 33 13 18 1027.6 1027.7 0.0
27/01:30pm 12.2 6.9 6.9 70 2.5 W 24 35 13 19 1027.8 1027.9 0.0
27/01:00pm 11.7 6.4 6.8 72 2.3 W 24 35 13 19 1027.9 1028.0 0.0
27/12:30pm 11.2 5.9 6.9 75 2.0 W 24 39 13 21 1028.0 1028.1 0.0
27/12:00pm 10.9 5.4 7.4 79 1.7 W 26 37 14 20 1028.6 1028.7 0.0
27/11:30am 10.6 6.4 7.3 80 1.6 W 19 28 10 15 1028.9 1029.0 0.0
27/11:00am 10.1 5.2 7.0 81 1.5 WNW 22 32 12 17 1028.7 1028.8 0.0
27/10:30am 9.6 6.1 7.0 84 1.2 WNW 15 22 8 12 1028.6 1028.7 0.0
27/10:00am 7.8 4.0 5.8 87 0.9 WNW 15 24 8 13 1028.2 1028.3 0.0
27/09:30am 7.2 3.0 5.8 91 0.6 WNW 17 26 9 14 1027.9 1028.0 0.0
27/09:00am 6.7 2.1 5.5 92 0.5 WNW 19 35 10 19 1027.3 1027.4 0.0
27/08:30am 6.1 1.7 4.9 92 0.5 WNW 17 24 9 13 1026.8 1026.9 0.0
27/08:00am 5.3 1.6 4.3 93 0.4 WNW 13 22 7 12 1026.5 1026.6 0.0
27/07:30am 5.0 0.8 4.0 93 0.4 W 15 24 8 13 1026.3 1026.4 0.0
27/07:00am 5.0 0.5 4.0 93 0.4 WNW 17 26 9 14 1025.9 1026.0 0.0
27/06:30am 4.8 -0.2 3.6 92 0.5 WNW 19 28 10 15 1025.5 1025.6 0.0
27/06:00am 4.7 0.1 3.5 92 0.5 WNW 17 24 9 13 1024.9 1025.0 0.0
27/05:30am 4.7 0.1 3.5 92 0.5 WNW 17 22 9 12 1024.7 1024.8 0.0
27/05:00am 4.8 -0.4 3.6 92 0.5 WNW 20 28 11 15 1024.5 1024.5 0.0
27/04:30am 5.3 0.1 3.8 90 0.6 WNW 20 32 11 17 1024.2 1024.2 0.0
27/04:00am 4.8 0.1 3.3 90 0.6 WNW 17 24 9 13 1024.0 1024.0 0.0
27/03:30am 4.8 0.2 3.6 92 0.5 WNW 17 26 9 14 1023.7 1023.7 0.0
27/03:00am 4.6 0.3 3.4 92 0.5 WNW 15 20 8 11 1023.6 1023.6 0.0
27/02:30am 4.7 -0.3 3.4 91 0.5 WNW 19 26 10 14 1023.2 1023.2 0.0
27/02:00am 4.5 0.2 3.3 92 0.5 NW 15 22 8 12 1023.1 1023.1 0.0
27/01:30am 5.0 0.4 3.7 91 0.5 WNW 17 22 9 12 1022.8 1022.8 0.0
27/01:00am 5.3 0.8 4.0 91 0.5 WNW 17 28 9 15 1022.7 1022.7 0.0
27/12:30am 5.3 0.4 4.1 92 0.5 WNW 19 30 10 16 1022.3 1022.3 0.0
27/12:00am 5.5 0.6 4.3 92 0.5 WNW 19 28 10 15 1022.2 1022.2 0.0
 
Date/Time
EST
Tmp

°C
App
Tmp
°C
Dew
Point
°C
Rel
Hum
%
Delta-T

°C
Wind Press
QNH
hPa
Press
MSL
hPa
Rain
since
9 am
mm
Dir
 
Spd
km/h
Gust
km/h
Spd
kts
Gust
kts
26/11:30pm 6.1 1.4 3.3 82 1.2 WNW 17 26 9 14 1021.9 1021.9 0.0
26/11:00pm 6.2 1.7 4.2 87 0.9 WNW 17 26 9 14 1021.7 1021.7 0.0
26/10:30pm 5.8 1.2 3.8 87 0.8 W 17 30 9 16 1021.4 1021.4 0.0
26/10:00pm 6.1 1.1 3.8 85 1.0 WNW 19 28 10 15 1021.0 1021.0 0.0
26/09:30pm 6.0 0.4 3.5 84 1.0 W 22 32 12 17 1020.7 1020.7 0.0
26/09:00pm 6.2 0.2 3.2 81 1.2 WNW 24 43 13 23 1019.8 1019.8 0.0
26/08:30pm 6.3 1.7 3.6 83 1.1 WNW 17 28 9 15 1019.7 1019.7 0.0
26/08:00pm 6.8 1.7 3.9 82 1.2 WNW 20 41 11 22 1019.3 1019.3 0.0
26/07:30pm 7.0 1.0 3.3 77 1.6 WNW 24 39 13 21 1018.6 1018.6 0.0

Latest Capital City Observations: Canberra | Sydney | Melbourne | Brisbane | Adelaide | Perth | Hobart | Darwin

Other Formats:

Comma delimited format used in spreadsheet applications
http://www.bom.gov.au/fwo/IDV60901/IDV60901.94857.axf

JavaScript Object Notation format (JSON) in row-major order
http://www.bom.gov.au/fwo/IDV60901/IDV60901.94857.json